Terminal Aerodrome Forecast
Issued by NWS Upton, NY

Home | Current Version | Previous Version | Text Only | Print | Product List | Glossary On
Versions: 1 2 3 4 5 6 7 8 9 10 11 12 13 14 15 16 17 18 19 20 21 22 23 24 25 26 27 28 29 30 31 32 33 34 35 36
000
FTUS41 KOKX 251445 AAB
TAFLGA
TAF AMD
KLGA 251445Z 2515/2618 07012G19KT 3SM RA BR SCT005 BKN007
     FM251700 07010G17KT 1 1/2SM -RA BR OVC004
     FM251800 06008KT 1 1/2SM -RA BR OVC004
     FM252000 04006KT 1SM BR VCSH OVC008
     FM252200 VRB04KT 1SM BR OVC025
     FM252300 VRB03KT 1SM BR OVC100
     FM260400 31005KT 4SM BR BKN150
     FM260700 31005KT P6SM BKN150
     FM261700 30009KT P6SM FEW250=

USA.gov is the U.S. government's official web portal to all federal, state and local government web resources and services.